createdAt,value
2023-05-11T00:00:16.629Z,12.48
2023-05-11T00:01:16.575Z,12.49
2023-05-11T00:02:16.700Z,12.44
2023-05-11T00:03:17.433Z,12.45
2023-05-11T00:04:16.483Z,12.45
2023-05-11T00:05:17.183Z,12.49
2023-05-11T00:06:16.759Z,12.51
2023-05-11T00:07:17.343Z,12.49
2023-05-11T00:08:17.219Z,12.47
2023-05-11T00:09:16.939Z,12.41
2023-05-11T00:10:16.696Z,12.41
2023-05-11T00:11:16.676Z,12.40
2023-05-11T00:12:16.907Z,12.45
2023-05-11T00:13:16.485Z,12.44
2023-05-11T00:14:17.076Z,12.47
2023-05-11T00:15:16.645Z,12.52
2023-05-11T00:16:17.324Z,12.51
2023-05-11T00:17:17.030Z,12.51
2023-05-11T00:18:16.600Z,12.52
2023-05-11T00:19:17.229Z,12.51
2023-05-11T00:20:17.017Z,12.51
2023-05-11T00:21:17.227Z,12.49
2023-05-11T00:22:16.644Z,12.56
2023-05-11T00:23:17.258Z,12.55
2023-05-11T00:24:16.795Z,12.53
2023-05-11T00:25:16.345Z,12.49
2023-05-11T00:26:16.910Z,12.52
2023-05-11T00:27:16.512Z,12.53
2023-05-11T00:28:17.076Z,12.52
2023-05-11T00:29:16.639Z,12.48
2023-05-11T00:30:17.457Z,12.48
2023-05-11T00:31:16.508Z,12.48
2023-05-11T00:32:16.436Z,12.49
2023-05-11T00:33:16.972Z,12.47
2023-05-11T00:34:16.546Z,12.48
2023-05-11T00:35:17.134Z,12.49
2023-05-11T00:36:16.677Z,12.48
2023-05-11T00:37:17.228Z,12.47
2023-05-11T00:38:16.768Z,12.48
2023-05-11T00:39:16.322Z,12.47
2023-05-11T00:40:17.114Z,12.45
2023-05-11T00:41:17.045Z,12.40
2023-05-11T00:42:17.120Z,12.35
2023-05-11T00:43:16.658Z,12.35
2023-05-11T00:44:17.272Z,12.34
2023-05-11T00:45:16.838Z,12.32
2023-05-11T00:46:16.468Z,12.35
2023-05-11T00:47:17.133Z,12.32
2023-05-11T00:48:16.713Z,12.30
2023-05-11T00:49:17.302Z,12.31
2023-05-11T00:50:17.226Z,12.31
2023-05-11T00:51:17.279Z,12.24
2023-05-11T00:52:16.430Z,12.25
2023-05-11T00:53:17.001Z,12.31
2023-05-11T00:54:16.534Z,12.37
2023-05-11T00:55:17.099Z,12.35
2023-05-11T00:56:16.672Z,12.34
2023-05-11T00:57:17.225Z,12.32
2023-05-11T00:58:16.841Z,12.32
2023-05-11T00:59:16.381Z,12.32
2023-05-11T01:00:17.261Z,12.35
2023-05-11T01:01:16.578Z,12.35
2023-05-11T01:02:17.314Z,12.38
2023-05-11T01:03:16.989Z,12.34
2023-05-11T01:04:16.646Z,12.34
2023-05-11T01:05:17.197Z,12.37
2023-05-11T01:06:16.760Z,12.38
2023-05-11T01:07:17.336Z,12.38
2023-05-11T01:08:16.886Z,12.35
2023-05-11T01:09:16.447Z,12.30
2023-05-11T01:10:17.226Z,12.30
2023-05-11T01:11:17.224Z,12.28
2023-05-11T01:12:17.223Z,12.30
2023-05-11T01:13:16.766Z,12.30
2023-05-11T01:14:16.345Z,12.25
2023-05-11T01:15:16.944Z,12.24
2023-05-11T01:16:16.577Z,12.25
2023-05-11T01:17:17.143Z,12.24
2023-05-11T01:18:16.695Z,12.21
2023-05-11T01:19:16.403Z,12.20
2023-05-11T01:20:17.269Z,12.20
2023-05-11T01:21:17.272Z,12.19
2023-05-11T01:22:16.408Z,12.17
2023-05-11T01:23:16.983Z,12.14
2023-05-11T01:24:16.572Z,12.16
2023-05-11T01:25:17.111Z,12.12
2023-05-11T01:26:16.671Z,12.12
2023-05-11T01:27:17.237Z,12.10
2023-05-11T01:28:16.795Z,12.08
2023-05-11T01:29:16.339Z,12.08
2023-05-11T01:30:17.037Z,12.10
2023-05-11T01:31:16.988Z,12.12
2023-05-11T01:32:16.520Z,12.08
2023-05-11T01:33:17.115Z,12.12
2023-05-11T01:34:16.861Z,12.07
2023-05-11T01:35:16.409Z,12.07
2023-05-11T01:36:16.974Z,12.07
2023-05-11T01:37:16.552Z,12.08
2023-05-11T01:38:17.094Z,12.04
2023-05-11T01:39:16.673Z,12.01
2023-05-11T01:40:17.469Z,12.06
2023-05-11T01:41:16.430Z,12.06
2023-05-11T01:42:16.976Z,12.04
2023-05-11T01:43:16.522Z,12.03
2023-05-11T01:44:17.073Z,12.04
2023-05-11T01:45:16.653Z,12.03
2023-05-11T01:46:17.222Z,12.00
2023-05-11T01:47:16.861Z,12.01
2023-05-11T01:48:16.414Z,12.03
2023-05-11T01:49:17.073Z,12.00
2023-05-11T01:50:16.838Z,12.01
2023-05-11T01:51:17.026Z,12.04
2023-05-11T01:52:17.045Z,12.04
2023-05-11T01:53:16.614Z,12.06
2023-05-11T01:54:17.210Z,12.04
2023-05-11T01:55:16.754Z,12.06
2023-05-11T01:56:17.318Z,12.04
2023-05-11T01:57:16.838Z,12.00
2023-05-11T01:58:16.361Z,12.01
2023-05-11T01:59:16.899Z,12.00
2023-05-11T02:00:16.627Z,11.99
2023-05-11T02:01:16.644Z,12.00
2023-05-11T02:02:16.924Z,12.04
2023-05-11T02:03:16.609Z,12.00
2023-05-11T02:04:16.389Z,11.99
2023-05-11T02:05:16.959Z,11.99
2023-05-11T02:06:16.509Z,11.96
2023-05-11T02:07:17.068Z,11.96
2023-05-11T02:08:16.659Z,11.96
2023-05-11T02:09:17.188Z,11.92
2023-05-11T02:10:16.820Z,11.90
2023-05-11T02:11:16.789Z,11.93
2023-05-11T02:12:16.351Z,11.86
2023-05-11T02:13:16.910Z,11.94
2023-05-11T02:14:16.457Z,11.93
2023-05-11T02:15:17.056Z,11.92
2023-05-11T02:16:16.643Z,11.90
2023-05-11T02:17:17.261Z,11.83
2023-05-11T02:18:16.816Z,11.80
2023-05-11T02:19:16.472Z,11.85
2023-05-11T02:20:17.132Z,11.83
2023-05-11T02:21:17.013Z,11.85
2023-05-11T02:22:16.433Z,11.83
2023-05-11T02:23:16.976Z,11.83
2023-05-11T02:24:16.513Z,11.83
2023-05-11T02:25:17.065Z,11.85
2023-05-11T02:26:16.731Z,11.88
2023-05-11T02:27:16.347Z,11.86
2023-05-11T02:28:16.918Z,11.86
2023-05-11T02:29:16.489Z,11.85
2023-05-11T02:30:17.175Z,11.85
2023-05-11T02:31:17.325Z,11.83
2023-05-11T02:32:17.221Z,11.93
2023-05-11T02:33:16.801Z,11.92
2023-05-11T02:34:16.345Z,11.97
2023-05-11T02:35:16.922Z,11.93
2023-05-11T02:36:16.465Z,11.93
2023-05-11T02:37:17.017Z,11.96
2023-05-11T02:38:16.539Z,11.94
2023-05-11T02:39:17.097Z,11.94
2023-05-11T02:40:17.027Z,11.90
2023-05-11T02:41:16.997Z,11.82
2023-05-11T02:42:17.072Z,11.82
2023-05-11T02:43:16.611Z,11.82
2023-05-11T02:44:17.208Z,11.80
2023-05-11T02:45:16.834Z,11.76
2023-05-11T02:46:16.427Z,11.72
2023-05-11T02:47:17.114Z,11.69
2023-05-11T02:48:16.677Z,11.68
2023-05-11T02:49:17.324Z,11.68
2023-05-11T02:50:17.007Z,11.62
2023-05-11T02:51:17.024Z,11.58
2023-05-11T02:52:16.519Z,11.62
2023-05-11T02:53:17.080Z,11.59
2023-05-11T02:54:16.636Z,11.62
2023-05-11T02:55:17.236Z,11.73
2023-05-11T02:56:16.841Z,11.76
2023-05-11T02:57:16.483Z,11.69
2023-05-11T02:58:17.100Z,11.69
2023-05-11T02:59:16.706Z,11.69
2023-05-11T03:00:17.518Z,11.65
2023-05-11T03:01:17.037Z,11.80
2023-05-11T03:02:17.422Z,11.79
2023-05-11T03:03:16.381Z,11.78
2023-05-11T03:04:17.119Z,11.75
2023-05-11T03:05:16.668Z,11.76
2023-05-11T03:06:16.376Z,11.72
2023-05-11T03:07:16.955Z,11.71
2023-05-11T03:08:16.539Z,11.66
2023-05-11T03:09:17.077Z,11.69
2023-05-11T03:10:16.802Z,11.65
2023-05-11T03:11:16.881Z,11.64
2023-05-11T03:12:17.164Z,11.59
2023-05-11T03:13:16.711Z,11.57
2023-05-11T03:14:17.244Z,11.55
2023-05-11T03:15:16.815Z,11.51
2023-05-11T03:16:17.019Z,11.50
2023-05-11T03:17:16.536Z,11.54
2023-05-11T03:18:17.153Z,11.55
2023-05-11T03:19:16.778Z,11.57
2023-05-11T03:20:16.552Z,11.58
2023-05-11T03:21:16.983Z,11.58
2023-05-11T03:22:16.647Z,11.52
2023-05-11T03:23:17.250Z,11.54
2023-05-11T03:24:16.803Z,11.58
2023-05-11T03:25:16.386Z,11.58
2023-05-11T03:26:16.950Z,11.55
2023-05-11T03:27:16.506Z,11.57
2023-05-11T03:28:17.075Z,11.54
2023-05-11T03:29:16.642Z,11.54
2023-05-11T03:30:17.399Z,11.55
2023-05-11T03:31:16.365Z,11.55
2023-05-11T03:32:16.515Z,11.55
2023-05-11T03:33:16.433Z,11.57
2023-05-11T03:34:17.006Z,11.54
2023-05-11T03:35:16.598Z,11.55
2023-05-11T03:36:17.176Z,11.57
2023-05-11T03:37:16.738Z,11.55
2023-05-11T03:38:17.342Z,11.57
2023-05-11T03:39:16.902Z,11.58
2023-05-11T03:40:16.567Z,11.57
2023-05-11T03:41:16.610Z,11.64
2023-05-11T03:42:16.639Z,11.61
2023-05-11T03:43:17.185Z,11.57
2023-05-11T03:44:16.788Z,11.58
2023-05-11T03:45:16.354Z,11.59
2023-05-11T03:46:16.988Z,11.57
2023-05-11T03:47:16.621Z,11.57
2023-05-11T03:48:17.140Z,11.57
2023-05-11T03:49:16.697Z,11.58
2023-05-11T03:50:17.426Z,11.59
2023-05-11T03:51:16.322Z,11.61
2023-05-11T03:52:17.281Z,11.57
2023-05-11T03:53:16.890Z,11.58
2023-05-11T03:54:16.463Z,11.58
2023-05-11T03:55:17.041Z,11.58
2023-05-11T03:56:16.623Z,11.59
2023-05-11T03:57:17.164Z,11.58
2023-05-11T03:58:16.697Z,11.55
2023-05-11T03:59:17.275Z,11.50
2023-05-11T04:00:17.107Z,11.54
2023-05-11T04:01:16.323Z,11.52
2023-05-11T04:02:17.164Z,11.54
2023-05-11T04:03:16.864Z,11.51
2023-05-11T04:04:16.604Z,11.45
2023-05-11T04:05:17.225Z,11.51
2023-05-11T04:06:16.782Z,11.51
2023-05-11T04:07:16.353Z,11.54
2023-05-11T04:08:16.926Z,11.54
2023-05-11T04:09:16.504Z,11.51
2023-05-11T04:10:17.236Z,11.54
2023-05-11T04:11:17.047Z,11.52
2023-05-11T04:12:16.524Z,11.50
2023-05-11T04:13:17.098Z,11.54
2023-05-11T04:14:16.664Z,11.57
2023-05-11T04:15:17.216Z,11.54
2023-05-11T04:16:16.789Z,11.54
2023-05-11T04:17:16.495Z,11.65
2023-05-11T04:18:17.113Z,11.73
2023-05-11T04:19:16.739Z,11.72
2023-05-11T04:20:17.440Z,11.71
2023-05-11T04:21:16.506Z,11.65
2023-05-11T04:22:16.693Z,11.66
2023-05-11T04:23:17.300Z,11.68
2023-05-11T04:24:16.852Z,11.62
2023-05-11T04:25:16.391Z,11.65
2023-05-11T04:26:16.998Z,11.61
2023-05-11T04:27:16.571Z,11.64
2023-05-11T04:28:17.104Z,11.61
2023-05-11T04:29:16.608Z,11.57
2023-05-11T04:30:17.344Z,11.54
2023-05-11T04:31:16.841Z,11.51
2023-05-11T04:32:16.338Z,11.52
2023-05-11T04:33:16.906Z,11.58
2023-05-11T04:34:16.460Z,11.58
2023-05-11T04:35:17.063Z,11.55
2023-05-11T04:36:16.613Z,11.51
2023-05-11T04:37:17.168Z,11.48
2023-05-11T04:38:16.712Z,11.50
2023-05-11T04:39:17.269Z,11.50
2023-05-11T04:40:17.282Z,11.47
2023-05-11T04:41:17.292Z,11.48
2023-05-11T04:42:16.488Z,11.48
2023-05-11T04:43:17.035Z,11.51
2023-05-11T04:44:16.587Z,11.52
2023-05-11T04:45:17.133Z,11.50
2023-05-11T04:46:16.708Z,11.48
2023-05-11T04:47:17.308Z,11.48
2023-05-11T04:48:18.853Z,11.52
2023-05-11T04:49:16.537Z,11.52
2023-05-11T04:50:17.320Z,11.54
2023-05-11T04:51:16.384Z,11.61
2023-05-11T04:52:16.536Z,11.62
2023-05-11T04:53:17.074Z,11.57
2023-05-11T04:54:16.604Z,11.59
2023-05-11T04:55:17.147Z,11.61
2023-05-11T04:56:16.728Z,11.66
2023-05-11T04:57:17.274Z,11.66
2023-05-11T04:58:16.867Z,11.68
2023-05-11T04:59:16.429Z,11.76
2023-05-11T05:00:17.165Z,11.79
2023-05-11T05:01:16.497Z,11.78
2023-05-11T05:02:17.248Z,11.80
2023-05-11T05:03:16.901Z,11.73
2023-05-11T05:04:16.786Z,11.65
2023-05-11T05:05:16.552Z,11.69
2023-05-11T05:06:17.117Z,11.71
2023-05-11T05:07:16.649Z,11.69
2023-05-11T05:08:17.232Z,11.78
2023-05-11T05:09:16.808Z,11.83
2023-05-11T05:10:16.466Z,11.83
2023-05-11T05:11:16.456Z,11.78
2023-05-11T05:12:16.700Z,11.75
2023-05-11T05:13:17.294Z,11.66
2023-05-11T05:14:16.854Z,11.66
2023-05-11T05:15:16.447Z,11.71
2023-05-11T05:16:17.022Z,11.62
2023-05-11T05:17:16.688Z,11.61
2023-05-11T05:18:17.309Z,11.57
2023-05-11T05:19:16.920Z,11.57
2023-05-11T05:20:16.683Z,11.61
2023-05-11T05:21:16.554Z,11.62
2023-05-11T05:22:17.084Z,11.59
2023-05-11T05:23:16.615Z,11.52
2023-05-11T05:24:17.209Z,11.59
2023-05-11T05:25:16.804Z,11.62
2023-05-11T05:26:16.474Z,11.58
2023-05-11T05:27:17.032Z,11.54
2023-05-11T05:28:16.642Z,11.68
2023-05-11T05:29:17.190Z,11.76
2023-05-11T05:30:16.878Z,11.80
2023-05-11T05:31:16.916Z,11.76
2023-05-11T05:32:16.806Z,11.76
2023-05-11T05:33:16.355Z,11.66
2023-05-11T05:34:16.934Z,11.71
2023-05-11T05:35:16.455Z,11.75
2023-05-11T05:36:17.003Z,11.82
2023-05-11T05:37:16.572Z,11.86
2023-05-11T05:38:17.128Z,11.83
2023-05-11T05:39:16.730Z,11.79
2023-05-11T05:40:17.468Z,11.75
2023-05-11T05:41:16.474Z,11.82
2023-05-11T05:42:16.452Z,11.79
2023-05-11T05:43:17.010Z,11.78
2023-05-11T05:44:16.593Z,11.78
2023-05-11T05:45:17.177Z,11.73
2023-05-11T05:46:16.811Z,11.71
2023-05-11T05:47:16.451Z,11.65
2023-05-11T05:48:17.048Z,11.66
2023-05-11T05:49:16.596Z,11.68
2023-05-11T05:50:17.423Z,11.68
2023-05-11T05:51:16.421Z,11.66
2023-05-11T05:52:16.339Z,11.65
2023-05-11T05:53:16.883Z,11.76
2023-05-11T05:54:16.468Z,11.86
2023-05-11T05:55:17.036Z,11.93
2023-05-11T05:56:16.633Z,11.97
2023-05-11T05:57:17.190Z,11.89
2023-05-11T05:58:16.760Z,11.93
2023-05-11T05:59:17.324Z,11.93
2023-05-11T06:00:17.014Z,11.89
2023-05-11T06:01:17.042Z,11.85
2023-05-11T06:02:17.062Z,11.83
2023-05-11T06:03:16.743Z,11.80
2023-05-11T06:04:16.486Z,11.80
2023-05-11T06:05:17.152Z,11.71
2023-05-11T06:06:16.712Z,11.68
2023-05-11T06:07:17.288Z,11.79
2023-05-11T06:08:16.906Z,11.82
2023-05-11T06:09:16.492Z,11.86
2023-05-11T06:10:17.284Z,11.86
2023-05-11T06:11:17.233Z,11.85
2023-05-11T06:12:16.424Z,11.75
2023-05-11T06:13:16.983Z,11.86
2023-05-11T06:14:16.540Z,11.73
2023-05-11T06:15:17.107Z,11.66
2023-05-11T06:16:16.690Z,11.71
2023-05-11T06:17:17.294Z,11.82
2023-05-11T06:18:16.879Z,11.82
2023-05-11T06:19:16.418Z,11.86
2023-05-11T06:20:17.312Z,11.88
2023-05-11T06:21:16.349Z,11.82
2023-05-11T06:22:16.419Z,11.85
2023-05-11T06:23:17.003Z,11.85
2023-05-11T06:24:16.543Z,11.90
2023-05-11T06:25:17.146Z,11.94
2023-05-11T06:26:16.683Z,11.97
2023-05-11T06:27:18.320Z,11.99
2023-05-11T06:28:17.011Z,11.99
2023-05-11T06:29:16.564Z,11.97
2023-05-11T06:30:17.319Z,11.99
2023-05-11T06:31:16.421Z,12.01
2023-05-11T06:32:16.488Z,12.03
2023-05-11T06:33:17.075Z,12.06
2023-05-11T06:34:16.621Z,11.97
2023-05-11T06:35:17.188Z,12.00
2023-05-11T06:36:16.761Z,11.96
2023-05-11T06:37:17.312Z,12.04
2023-05-11T06:38:16.864Z,11.92
2023-05-11T06:39:16.450Z,11.89
2023-05-11T06:40:17.210Z,11.93
2023-05-11T06:41:17.284Z,12.01
2023-05-11T06:42:16.345Z,12.04
2023-05-11T06:43:16.935Z,12.04
2023-05-11T06:44:16.514Z,12.07
2023-05-11T06:45:17.107Z,11.94
2023-05-11T06:46:16.758Z,11.96
2023-05-11T06:47:16.316Z,12.00
2023-05-11T06:48:16.878Z,12.03
2023-05-11T06:49:16.453Z,12.06
2023-05-11T06:50:17.499Z,12.17
2023-05-11T06:51:16.531Z,12.07
2023-05-11T06:52:16.748Z,12.04
2023-05-11T06:53:17.621Z,12.12
2023-05-11T06:54:17.314Z,12.13
2023-05-11T06:55:16.879Z,12.13
2023-05-11T06:56:16.416Z,12.16
2023-05-11T06:57:16.986Z,12.04
2023-05-11T06:58:16.525Z,11.99
2023-05-11T06:59:17.060Z,11.96
2023-05-11T07:00:16.797Z,11.97
2023-05-11T07:01:16.899Z,11.97
2023-05-11T07:02:17.089Z,12.14
2023-05-11T07:03:16.665Z,12.24
2023-05-11T07:04:16.413Z,12.23
2023-05-11T07:05:17.082Z,12.19
2023-05-11T07:06:16.710Z,12.04
2023-05-11T07:07:17.297Z,12.01
2023-05-11T07:08:16.905Z,12.01
2023-05-11T07:09:16.515Z,12.03
2023-05-11T07:10:17.226Z,11.99
2023-05-11T07:11:17.139Z,12.03
2023-05-11T07:12:17.119Z,12.13
2023-05-11T07:13:16.684Z,12.08
2023-05-11T07:14:17.255Z,12.17
2023-05-11T07:15:16.839Z,12.24
2023-05-11T07:16:16.407Z,12.13
2023-05-11T07:17:17.084Z,12.16
2023-05-11T07:18:16.679Z,12.17
2023-05-11T07:19:17.242Z,12.25
2023-05-11T07:20:16.920Z,12.21
2023-05-11T07:21:16.894Z,12.23
2023-05-11T07:22:16.444Z,12.25
2023-05-11T07:23:17.017Z,12.35
2023-05-11T07:24:16.545Z,12.38
2023-05-11T07:25:17.112Z,12.41
2023-05-11T07:26:16.709Z,12.51
2023-05-11T07:27:17.246Z,12.59
2023-05-11T07:28:16.804Z,12.59
2023-05-11T07:29:16.385Z,12.63
2023-05-11T07:30:18.633Z,12.63
2023-05-11T07:31:16.552Z,12.59
2023-05-11T07:32:16.366Z,12.49
2023-05-11T07:33:16.964Z,12.55
2023-05-11T07:34:16.557Z,12.58
2023-05-11T07:35:17.097Z,12.51
2023-05-11T07:36:16.647Z,12.55
2023-05-11T07:37:17.229Z,12.58
2023-05-11T07:38:16.811Z,12.63
2023-05-11T07:39:16.384Z,12.53
2023-05-11T07:40:17.022Z,12.59
2023-05-11T07:41:16.494Z,12.60
2023-05-11T07:42:17.268Z,12.48
2023-05-11T07:43:16.889Z,12.52
2023-05-11T07:44:16.458Z,12.55
2023-05-11T07:45:17.023Z,12.56
2023-05-11T07:46:16.630Z,12.62
2023-05-11T07:47:17.272Z,12.65
2023-05-11T07:48:16.848Z,12.44
2023-05-11T07:49:20.727Z,12.41
2023-05-11T07:50:17.169Z,12.42
2023-05-11T07:51:16.883Z,12.52
2023-05-11T07:52:16.481Z,12.55
2023-05-11T07:53:17.088Z,12.55
2023-05-11T07:54:17.757Z,12.59
2023-05-11T07:55:16.415Z,12.59
2023-05-11T07:56:17.127Z,12.62
2023-05-11T07:57:16.734Z,12.63
2023-05-11T07:58:16.347Z,12.65
2023-05-11T07:59:16.890Z,12.70
2023-05-11T08:01:16.541Z,12.69
2023-05-11T08:02:16.900Z,12.70
2023-05-11T08:03:16.554Z,12.76
2023-05-11T08:04:17.214Z,12.87
2023-05-11T08:05:16.885Z,12.87
2023-05-11T08:06:16.884Z,12.80
2023-05-11T08:07:16.654Z,12.82
2023-05-11T08:08:17.244Z,12.86
2023-05-11T08:09:16.833Z,12.90
2023-05-11T08:10:16.415Z,12.90
2023-05-11T08:11:17.037Z,12.94
2023-05-11T08:12:16.856Z,13.06
2023-05-11T08:13:17.239Z,13.02
2023-05-11T08:14:17.042Z,12.93
2023-05-11T08:15:17.018Z,12.92
2023-05-11T08:16:17.250Z,12.92
2023-05-11T08:17:16.875Z,12.88
2023-05-11T08:18:16.450Z,12.75
2023-05-11T08:19:17.009Z,12.55
2023-05-11T08:20:16.575Z,12.56
2023-05-11T08:21:17.130Z,12.58
2023-05-11T08:22:16.886Z,12.55
2023-05-11T08:23:16.507Z,12.49
2023-05-11T08:24:17.086Z,12.55
2023-05-11T08:25:16.816Z,12.60
2023-05-11T08:26:17.023Z,12.60
2023-05-11T08:27:16.608Z,12.69
2023-05-11T08:28:17.239Z,12.72
2023-05-11T08:29:16.812Z,12.72
2023-05-11T08:30:16.409Z,12.72
2023-05-11T08:31:16.996Z,12.75
2023-05-11T08:32:17.055Z,12.65
2023-05-11T08:33:34.262Z,12.63
2023-05-11T08:34:19.979Z,12.75
2023-05-11T08:35:17.178Z,12.47
2023-05-11T08:36:16.397Z,12.48
2023-05-11T08:37:16.966Z,12.52
2023-05-11T08:38:16.534Z,12.55
2023-05-11T08:39:28.464Z,12.47
2023-05-11T08:40:16.649Z,12.41
2023-05-11T08:41:17.215Z,12.47
2023-05-11T08:42:17.146Z,12.37
2023-05-11T08:43:16.849Z,12.37
2023-05-11T08:44:16.409Z,12.45
2023-05-11T08:45:17.185Z,12.51
2023-05-11T08:46:17.326Z,12.55
2023-05-11T08:47:21.739Z,12.68
2023-05-11T08:48:17.312Z,12.77
2023-05-11T08:49:16.859Z,12.83
2023-05-11T08:50:16.419Z,12.88
2023-05-11T08:51:16.999Z,12.92
2023-05-11T08:52:16.742Z,12.87
2023-05-11T08:53:17.289Z,12.82
2023-05-11T08:54:16.847Z,12.82
2023-05-11T08:55:16.561Z,12.82
2023-05-11T08:56:16.798Z,12.69
2023-05-11T08:57:16.350Z,12.76
2023-05-11T08:58:17.150Z,12.87
2023-05-11T08:59:16.698Z,12.96
2023-05-11T09:00:17.255Z,13.04
2023-05-11T09:01:16.870Z,13.06
2023-05-11T09:02:16.815Z,13.11
2023-05-11T09:03:16.419Z,13.06
2023-05-11T09:04:16.984Z,12.94
2023-05-11T09:05:16.592Z,12.99
2023-05-11T09:06:16.609Z,12.96
2023-05-11T09:07:17.182Z,12.96
2023-05-11T09:08:16.772Z,12.97
2023-05-11T09:09:16.367Z,13.00
2023-05-11T09:10:16.936Z,13.04
2023-05-11T09:11:16.527Z,12.97
2023-05-11T09:12:16.357Z,12.75
2023-05-11T09:13:17.057Z,12.69
2023-05-11T09:14:16.641Z,12.66
2023-05-11T09:15:17.263Z,12.70
2023-05-11T09:16:28.216Z,12.63
2023-05-11T09:17:16.613Z,12.58
2023-05-11T09:18:17.200Z,12.56
2023-05-11T09:19:16.848Z,12.59
2023-05-11T09:20:16.555Z,12.63
2023-05-11T09:21:16.511Z,12.77
2023-05-11T09:22:16.924Z,12.79
2023-05-11T09:23:16.544Z,12.87
2023-05-11T09:24:17.129Z,12.94
2023-05-11T09:25:16.794Z,12.94
2023-05-11T09:26:16.756Z,13.00
2023-05-11T09:27:21.116Z,12.70
2023-05-11T09:28:24.861Z,12.70
2023-05-11T09:29:16.384Z,12.60
2023-05-11T09:31:16.828Z,12.48
2023-05-11T09:32:16.354Z,12.55
2023-05-11T09:33:16.965Z,12.66
2023-05-11T09:34:16.552Z,12.75
2023-05-11T09:35:17.308Z,12.69
2023-05-11T09:36:16.508Z,12.70
2023-05-11T09:37:17.143Z,12.63
2023-05-11T09:38:16.736Z,12.62
2023-05-11T09:40:33.463Z,12.55
2023-05-11T09:41:16.653Z,12.51
2023-05-11T09:42:16.521Z,12.56
2023-05-11T09:43:17.318Z,12.48
2023-05-11T09:44:16.897Z,12.47
2023-05-11T09:45:16.615Z,12.44
2023-05-11T09:46:16.624Z,12.51
2023-05-11T09:47:17.264Z,12.45
2023-05-11T09:48:16.909Z,12.48
2023-05-11T09:49:16.623Z,12.45
2023-05-11T09:50:17.288Z,12.48
2023-05-11T09:51:17.229Z,12.47
2023-05-11T09:52:16.461Z,12.58
2023-05-11T09:53:17.120Z,12.68
2023-05-11T09:54:16.805Z,12.70
2023-05-11T09:55:16.571Z,12.66
2023-05-11T09:56:16.673Z,12.60
2023-05-11T09:57:16.365Z,12.73
2023-05-11T09:58:16.948Z,12.84
2023-05-11T09:59:16.501Z,12.96
2023-05-11T10:00:17.172Z,13.02
2023-05-11T10:01:16.807Z,13.03
2023-05-11T10:02:16.626Z,13.04
2023-05-11T10:03:17.331Z,13.11
2023-05-11T10:04:23.301Z,13.14
2023-05-11T10:05:16.866Z,13.11
2023-05-11T10:06:18.765Z,13.02
2023-05-11T10:07:17.016Z,13.03
2023-05-11T10:08:16.563Z,12.93
2023-05-11T10:09:17.135Z,13.02
2023-05-11T10:10:16.738Z,12.97
2023-05-11T10:11:17.319Z,12.83
2023-05-11T10:12:17.212Z,12.80
2023-05-11T10:13:16.823Z,12.93
2023-05-11T10:14:16.508Z,12.99
2023-05-11T10:15:17.437Z,13.06
2023-05-11T10:16:17.309Z,12.92
2023-05-11T10:17:16.934Z,12.90
2023-05-11T10:18:18.774Z,12.87
2023-05-11T10:19:17.048Z,12.87
2023-05-11T10:20:16.810Z,12.88
2023-05-11T10:21:16.552Z,12.90
2023-05-11T10:22:16.973Z,12.93
2023-05-11T10:23:16.693Z,12.97
2023-05-11T10:24:19.680Z,12.97
2023-05-11T10:25:17.132Z,12.99
2023-05-11T10:26:16.656Z,13.07
2023-05-11T10:27:17.223Z,13.10
2023-05-11T10:28:16.771Z,13.22
2023-05-11T10:29:16.347Z,13.35
2023-05-11T10:30:17.073Z,13.38
2023-05-11T10:31:17.152Z,13.53
2023-05-11T10:32:16.340Z,13.55
2023-05-11T10:33:16.895Z,13.58
2023-05-11T10:34:16.514Z,13.43
2023-05-11T10:35:17.299Z,13.45
2023-05-11T10:36:19.198Z,13.37
2023-05-11T10:37:16.348Z,13.32
2023-05-11T10:38:16.942Z,13.39
2023-05-11T10:39:16.512Z,13.52
2023-05-11T10:40:17.157Z,13.60
2023-05-11T10:41:17.144Z,13.67
2023-05-11T10:42:16.423Z,13.49
2023-05-11T10:43:17.099Z,13.45
2023-05-11T10:44:16.710Z,13.21
2023-05-11T10:45:17.299Z,13.03
2023-05-11T10:46:16.963Z,12.96
2023-05-11T10:47:16.681Z,13.00
2023-05-11T10:48:17.284Z,13.08
2023-05-11T10:49:16.862Z,13.14
2023-05-11T10:50:16.647Z,13.22
2023-05-11T10:51:16.474Z,13.32
2023-05-11T10:52:16.731Z,13.39
2023-05-11T10:53:17.311Z,13.43
2023-05-11T10:54:16.925Z,13.49
2023-05-11T10:55:16.635Z,13.35
2023-05-11T10:56:16.752Z,13.24
2023-05-11T10:57:17.314Z,13.17
2023-05-11T10:58:16.883Z,13.21
2023-05-11T10:59:16.503Z,13.21
2023-05-11T11:00:17.241Z,13.21
2023-05-11T11:01:16.482Z,13.14
2023-05-11T11:02:16.886Z,13.11
2023-05-11T11:03:16.501Z,13.02
2023-05-11T11:04:17.078Z,12.96
2023-05-11T11:05:16.737Z,12.92
2023-05-11T11:06:16.763Z,12.92
2023-05-11T11:07:16.371Z,13.02
2023-05-11T11:08:16.956Z,13.14
2023-05-11T11:09:16.606Z,13.22
2023-05-11T11:10:17.396Z,13.32
2023-05-11T11:11:16.470Z,13.41
2023-05-11T11:12:16.702Z,13.43
2023-05-11T11:13:16.328Z,13.46
2023-05-11T11:14:16.929Z,13.38
2023-05-11T11:15:16.851Z,13.42
2023-05-11T11:16:16.884Z,13.53
2023-05-11T11:17:16.589Z,13.46
2023-05-11T11:18:16.598Z,13.52
2023-05-11T11:19:17.238Z,13.58
2023-05-11T11:20:16.817Z,13.59
2023-05-11T11:21:16.369Z,13.66
2023-05-11T11:22:16.714Z,13.63
2023-05-11T11:23:17.314Z,13.63
2023-05-11T11:24:16.934Z,13.52
2023-05-11T11:25:16.661Z,13.52
2023-05-11T11:26:16.779Z,13.52
2023-05-11T11:27:16.358Z,13.58
2023-05-11T11:28:16.932Z,13.56
2023-05-11T11:29:16.550Z,13.59
2023-05-11T11:30:17.187Z,13.65
2023-05-11T11:31:16.791Z,13.69
2023-05-11T11:32:17.313Z,13.72
2023-05-11T11:33:16.934Z,13.31
2023-05-11T11:34:16.558Z,13.17
2023-05-11T11:35:17.344Z,13.14
2023-05-11T11:36:17.300Z,13.25
2023-05-11T11:37:16.913Z,13.24
2023-05-11T11:38:16.508Z,13.24
2023-05-11T11:39:17.038Z,13.31
2023-05-11T11:40:16.719Z,13.39
2023-05-11T11:41:16.374Z,13.41
2023-05-11T11:42:17.098Z,13.37
2023-05-11T11:43:16.705Z,13.39
2023-05-11T11:44:17.335Z,13.31
2023-05-11T11:45:16.986Z,13.34
2023-05-11T11:46:17.073Z,13.41
2023-05-11T11:47:16.688Z,13.32
2023-05-11T11:48:17.246Z,13.32
2023-05-11T11:49:16.849Z,13.41
2023-05-11T11:50:16.426Z,13.42
2023-05-11T11:51:17.081Z,13.46
2023-05-11T11:52:17.069Z,13.49
2023-05-11T11:53:16.655Z,13.39
2023-05-11T11:54:17.260Z,13.39
2023-05-11T11:55:16.966Z,13.37
2023-05-11T11:56:16.980Z,13.21
2023-05-11T11:57:16.566Z,13.15
2023-05-11T11:58:17.109Z,13.14
2023-05-11T11:59:16.770Z,13.14
2023-05-11T12:00:16.387Z,13.18
2023-05-11T12:01:16.972Z,13.18
2023-05-11T12:02:16.715Z,13.27
2023-05-11T12:03:17.336Z,13.27
2023-05-11T12:04:17.234Z,13.27
2023-05-11T12:05:16.500Z,13.31
2023-05-11T12:06:17.298Z,13.37
2023-05-11T12:07:16.903Z,13.25
2023-05-11T12:08:16.508Z,13.20
2023-05-11T12:09:17.152Z,13.10
2023-05-11T12:10:16.724Z,13.07
2023-05-11T12:11:16.448Z,13.06
2023-05-11T12:12:16.402Z,13.00
2023-05-11T12:13:16.956Z,13.02
2023-05-11T12:14:16.543Z,12.99
2023-05-11T12:15:17.241Z,13.04
2023-05-11T12:16:17.232Z,13.13
2023-05-11T12:17:16.913Z,13.17
2023-05-11T12:18:16.548Z,13.25
2023-05-11T12:19:17.149Z,13.32
2023-05-11T12:20:16.872Z,13.34
2023-05-11T12:21:16.459Z,13.37
2023-05-11T12:22:16.398Z,13.43
2023-05-11T12:23:17.038Z,13.50
2023-05-11T12:24:16.679Z,13.53
2023-05-11T12:25:17.791Z,13.63
2023-05-11T12:26:16.537Z,13.65
2023-05-11T12:27:17.081Z,13.67
2023-05-11T12:28:16.680Z,13.65
2023-05-11T12:29:17.241Z,13.60
2023-05-11T12:30:16.860Z,13.49
2023-05-11T12:31:16.473Z,13.52
2023-05-11T12:32:17.360Z,13.49
2023-05-11T12:33:17.004Z,13.50
2023-05-11T12:34:16.756Z,13.50
2023-05-11T12:35:16.467Z,13.41
2023-05-11T12:36:16.569Z,13.37
2023-05-11T12:37:17.148Z,13.41
2023-05-11T12:38:16.742Z,13.46
2023-05-11T12:39:17.296Z,13.43
2023-05-11T12:40:17.943Z,13.37
2023-05-11T12:41:16.469Z,13.42
2023-05-11T12:42:17.020Z,13.41
2023-05-11T12:43:16.555Z,13.37
2023-05-11T12:44:17.124Z,13.39
2023-05-11T12:45:16.839Z,13.28
2023-05-11T12:46:16.961Z,13.24
2023-05-11T12:47:16.603Z,13.22
2023-05-11T12:48:17.159Z,13.13
2023-05-11T12:49:16.952Z,13.17
2023-05-11T12:50:16.608Z,13.17
2023-05-11T12:51:17.189Z,13.13
2023-05-11T12:52:16.382Z,13.11
2023-05-11T12:53:16.970Z,13.07
2023-05-11T12:54:16.549Z,13.06
2023-05-11T12:55:17.263Z,13.11